createdAt,value
2019-02-23T00:00:42.296Z,104724.00
2019-02-23T00:02:21.113Z,104727.00
2019-02-23T00:03:56.514Z,104722.00
2019-02-23T00:05:32.590Z,104734.00
2019-02-23T00:07:07.730Z,104730.00
2019-02-23T00:08:43.092Z,104728.00
2019-02-23T00:10:18.225Z,104729.00
2019-02-23T00:11:53.338Z,104731.00
2019-02-23T00:13:28.486Z,104730.00
2019-02-23T00:15:07.017Z,104731.00
2019-02-23T00:16:42.114Z,104725.00
2019-02-23T00:18:17.232Z,104731.00
2019-02-23T00:19:54.153Z,104723.00
2019-02-23T00:21:30.461Z,104723.00
2019-02-23T00:23:05.593Z,104741.00
2019-02-23T00:24:40.719Z,104748.00
2019-02-23T00:26:15.857Z,104744.00
2019-02-23T00:27:50.989Z,104746.00
2019-02-23T00:29:26.101Z,104747.00
2019-02-23T00:31:01.247Z,104743.00
2019-02-23T00:32:36.375Z,104753.00
2019-02-23T00:34:11.508Z,104749.00
2019-02-23T00:35:46.915Z,104746.00
2019-02-23T00:37:22.055Z,104741.00
2019-02-23T00:38:57.230Z,104737.00
2019-02-23T00:40:35.087Z,104741.00
2019-02-23T00:42:10.177Z,104740.00
2019-02-23T00:43:45.284Z,104740.00
2019-02-23T00:45:20.392Z,104747.00
2019-02-23T00:46:56.507Z,104752.00
2019-02-23T00:48:31.594Z,104751.00
2019-02-23T00:50:06.867Z,104749.00
2019-02-23T00:51:41.950Z,104741.00
2019-02-23T00:53:17.382Z,104744.00
2019-02-23T00:54:52.469Z,104741.00
2019-02-23T00:56:28.513Z,104744.00
2019-02-23T00:58:04.000Z,104741.00
2019-02-23T00:59:39.126Z,104741.00
2019-02-23T01:01:14.305Z,104746.00
2019-02-23T01:02:49.434Z,104744.00
2019-02-23T01:04:24.545Z,104747.00
2019-02-23T01:05:59.647Z,104759.00
2019-02-23T01:07:34.781Z,104748.00
2019-02-23T01:09:10.177Z,104745.00
2019-02-23T01:10:45.543Z,104753.00
2019-02-23T01:12:20.732Z,104747.00
2019-02-23T01:13:55.863Z,104757.00
2019-02-23T01:15:31.124Z,104760.00
2019-02-23T01:17:06.272Z,104756.00
2019-02-23T01:18:41.464Z,104754.00
2019-02-23T01:20:16.573Z,104742.00
2019-02-23T01:21:51.982Z,104743.00
2019-02-23T01:23:27.350Z,104737.00
2019-02-23T01:25:02.450Z,104740.00
2019-02-23T01:26:37.587Z,104743.00
2019-02-23T01:28:12.811Z,104732.00
2019-02-23T01:29:48.004Z,104746.00
2019-02-23T01:31:23.095Z,104745.00
2019-02-23T01:32:58.223Z,104736.00
2019-02-23T01:34:34.591Z,104733.00
2019-02-23T01:36:09.724Z,104726.00
2019-02-23T01:37:44.878Z,104728.00
2019-02-23T01:39:21.209Z,104727.00
2019-02-23T01:40:56.341Z,104724.00
2019-02-23T01:42:31.571Z,104718.00
2019-02-23T01:44:06.938Z,104709.00
2019-02-23T01:45:42.782Z,104714.00
2019-02-23T01:47:18.196Z,104723.00
2019-02-23T01:48:53.324Z,104720.00
2019-02-23T01:50:28.432Z,104728.00
2019-02-23T01:52:03.549Z,104718.00
2019-02-23T01:53:38.679Z,104702.00
2019-02-23T01:55:13.779Z,104714.00
2019-02-23T01:56:48.900Z,104700.00
2019-02-23T01:58:24.028Z,104705.00
2019-02-23T01:59:59.141Z,104687.00
2019-02-23T02:01:34.242Z,104680.00
2019-02-23T02:03:09.373Z,104682.00
2019-02-23T02:04:44.732Z,104668.00
2019-02-23T02:06:19.840Z,104683.00
2019-02-23T02:07:55.128Z,104685.00
2019-02-23T02:09:30.223Z,104667.00
2019-02-23T02:11:05.334Z,104658.00
2019-02-23T02:12:40.463Z,104663.00
2019-02-23T02:14:15.821Z,104658.00
2019-02-23T02:15:50.949Z,104656.00
2019-02-23T02:17:26.061Z,104643.00
2019-02-23T02:23:17.407Z,104630.00
2019-02-23T02:24:52.504Z,104623.00
2019-02-23T02:26:27.669Z,104619.00
2019-02-23T02:28:02.781Z,104617.00
2019-02-23T02:29:38.133Z,104623.00
2019-02-23T02:31:13.225Z,104618.00
2019-02-23T02:32:48.330Z,104625.00
2019-02-23T02:34:23.711Z,104632.00
2019-02-23T02:35:58.804Z,104633.00
2019-02-23T02:37:33.902Z,104651.00
2019-02-23T02:39:11.519Z,104660.00
2019-02-23T02:40:46.604Z,104657.00
2019-02-23T02:42:21.695Z,104660.00
2019-02-23T02:43:57.279Z,104645.00
2019-02-23T02:45:32.374Z,104645.00
2019-02-23T02:47:07.481Z,104643.00
2019-02-23T02:48:42.584Z,104644.00
2019-02-23T02:50:24.131Z,104641.00
2019-02-23T02:51:54.482Z,104646.00
2019-02-23T02:53:29.618Z,104644.00
2019-02-23T02:55:06.643Z,104640.00
2019-02-23T02:56:42.013Z,104643.00
2019-02-23T02:58:17.115Z,104632.00
2019-02-23T02:59:52.492Z,104636.00
2019-02-23T03:01:27.591Z,104624.00
2019-02-23T03:03:02.708Z,104637.00
2019-02-23T03:04:37.810Z,104639.00
2019-02-23T03:06:12.899Z,104644.00
2019-02-23T03:07:48.004Z,104640.00
2019-02-23T03:09:23.121Z,104632.00
2019-02-23T03:10:58.215Z,104636.00
2019-02-23T03:12:33.336Z,104632.00
2019-02-23T03:14:08.443Z,104630.00
2019-02-23T03:15:43.537Z,104632.00
2019-02-23T03:17:18.930Z,104612.00
2019-02-23T03:18:54.065Z,104633.00
2019-02-23T03:20:36.685Z,104632.00
2019-02-23T03:22:05.951Z,104643.00
2019-02-23T03:23:42.183Z,104649.00
2019-02-23T03:25:17.542Z,104644.00
2019-02-23T03:26:52.633Z,104651.00
2019-02-23T03:28:27.753Z,104643.00
2019-02-23T03:30:02.931Z,104638.00
2019-02-23T03:31:38.146Z,104642.00
2019-02-23T03:33:13.223Z,104626.00
2019-02-23T03:34:48.320Z,104618.00
2019-02-23T03:36:23.419Z,104619.00
2019-02-23T03:37:58.789Z,104618.00
2019-02-23T03:39:33.903Z,104627.00
2019-02-23T03:41:09.000Z,104627.00
2019-02-23T03:42:44.101Z,104633.00
2019-02-23T03:44:19.264Z,104637.00
2019-02-23T03:45:54.565Z,104635.00
2019-02-23T03:47:29.930Z,104645.00
2019-02-23T03:49:05.048Z,104625.00
2019-02-23T03:50:48.755Z,104614.00
2019-02-23T03:52:16.960Z,104623.00
2019-02-23T03:53:52.062Z,104627.00
2019-02-23T03:55:28.123Z,104625.00
2019-02-23T03:57:03.233Z,104620.00
2019-02-23T03:58:38.330Z,104611.00
2019-02-23T04:00:14.410Z,104622.00
2019-02-23T04:01:49.496Z,104613.00
2019-02-23T04:03:24.608Z,104609.00
2019-02-23T04:04:59.710Z,104620.00
2019-02-23T04:06:34.802Z,104608.00
2019-02-23T04:08:10.159Z,104608.00
2019-02-23T04:09:45.266Z,104610.00
2019-02-23T04:11:20.607Z,104620.00
2019-02-23T04:12:55.708Z,104624.00
2019-02-23T04:14:30.828Z,104623.00
2019-02-23T04:16:05.947Z,104624.00
2019-02-23T04:17:41.067Z,104624.00
2019-02-23T04:19:16.201Z,104625.00
2019-02-23T04:21:01.412Z,104620.00
2019-02-23T04:22:28.100Z,104622.00
2019-02-23T04:24:03.216Z,104621.00
2019-02-23T04:25:38.312Z,104617.00
2019-02-23T04:27:13.737Z,104615.00
2019-02-23T04:28:48.852Z,104619.00
2019-02-23T04:30:23.942Z,104628.00
2019-02-23T04:31:59.046Z,104626.00
2019-02-23T04:33:34.413Z,104627.00
2019-02-23T04:35:09.788Z,104630.00
2019-02-23T04:36:44.892Z,104613.00
2019-02-23T04:38:19.996Z,104617.00
2019-02-23T04:39:55.145Z,104599.00
2019-02-23T04:41:42.958Z,104598.00
2019-02-23T04:43:18.056Z,104606.00
2019-02-23T04:44:53.164Z,104597.00
2019-02-23T04:46:28.258Z,104603.00
2019-02-23T04:48:03.365Z,104605.00
2019-02-23T04:49:38.462Z,104607.00
2019-02-23T04:51:14.866Z,104599.00
2019-02-23T04:52:50.057Z,104585.00
2019-02-23T04:54:25.159Z,104587.00
2019-02-23T04:56:00.257Z,104583.00
2019-02-23T04:57:35.346Z,104572.00
2019-02-23T04:59:10.448Z,104558.00
2019-02-23T05:00:45.541Z,104560.00
2019-02-23T05:02:20.638Z,104548.00
2019-02-23T05:03:55.747Z,104553.00
2019-02-23T05:05:30.848Z,104557.00
2019-02-23T05:07:05.969Z,104570.00
2019-02-23T05:08:41.035Z,104567.00
2019-02-23T05:10:16.143Z,104562.00
2019-02-23T05:11:51.753Z,104557.00
2019-02-23T05:13:26.924Z,104559.00
2019-02-23T05:15:02.020Z,104556.00
2019-02-23T05:16:38.287Z,104556.00
2019-02-23T05:18:14.528Z,104554.00
2019-02-23T05:19:49.621Z,104566.00
2019-02-23T05:21:26.806Z,104570.00
2019-02-23T05:23:01.841Z,104563.00
2019-02-23T05:24:37.246Z,104576.00
2019-02-23T05:26:12.347Z,104576.00
2019-02-23T05:27:47.443Z,104565.00
2019-02-23T05:29:22.545Z,104583.00
2019-02-23T05:30:57.643Z,104581.00
2019-02-23T05:32:32.742Z,104592.00
2019-02-23T05:34:07.836Z,104600.00
2019-02-23T05:35:42.950Z,104610.00
2019-02-23T05:37:18.047Z,104609.00
2019-02-23T05:38:53.149Z,104611.00
2019-02-23T05:40:28.270Z,104615.00
2019-02-23T05:42:03.445Z,104608.00
2019-02-23T05:43:38.808Z,104596.00
2019-02-23T05:45:15.035Z,104608.00
2019-02-23T05:46:50.129Z,104600.00
2019-02-23T05:48:25.539Z,104594.00
2019-02-23T05:50:00.642Z,104598.00
2019-02-23T05:51:38.905Z,104599.00
2019-02-23T05:53:12.538Z,104609.00
2019-02-23T05:54:48.623Z,104607.00
2019-02-23T05:56:23.798Z,104607.00
2019-02-23T05:57:59.174Z,104621.00
2019-02-23T05:59:34.282Z,104633.00
2019-02-23T06:01:09.373Z,104626.00
2019-02-23T06:02:45.521Z,104624.00
2019-02-23T06:04:21.683Z,104619.00
2019-02-23T06:05:56.792Z,104613.00
2019-02-23T06:07:31.888Z,104604.00
2019-02-23T06:09:06.984Z,104622.00
2019-02-23T06:10:44.625Z,104618.00
2019-02-23T06:12:19.153Z,104614.00
2019-02-23T06:13:54.249Z,104619.00
2019-02-23T06:15:29.354Z,104607.00
2019-02-23T06:17:04.452Z,104617.00
2019-02-23T06:18:39.544Z,104608.00
2019-02-23T06:20:16.112Z,104621.00
2019-02-23T06:21:54.040Z,104618.00
2019-02-23T06:23:28.018Z,104614.00
2019-02-23T06:25:03.369Z,104627.00
2019-02-23T06:26:38.458Z,104629.00
2019-02-23T06:28:13.557Z,104635.00
2019-02-23T06:29:48.671Z,104636.00
2019-02-23T06:31:23.766Z,104644.00
2019-02-23T06:32:58.860Z,104645.00
2019-02-23T06:34:33.975Z,104653.00
2019-02-23T06:36:09.076Z,104654.00
2019-02-23T06:37:44.169Z,104648.00
2019-02-23T06:39:19.345Z,104660.00
2019-02-23T06:40:54.456Z,104664.00
2019-02-23T06:42:29.546Z,104683.00
2019-02-23T06:44:04.639Z,104677.00
2019-02-23T06:45:39.744Z,104676.00
2019-02-23T06:47:14.985Z,104679.00
2019-02-23T06:48:50.339Z,104677.00
2019-02-23T06:50:25.447Z,104672.00
2019-02-23T06:52:04.357Z,104678.00
2019-02-23T06:53:39.747Z,104677.00
2019-02-23T06:55:14.857Z,104682.00
2019-02-23T06:56:49.947Z,104684.00
2019-02-23T06:58:25.127Z,104699.00
2019-02-23T07:00:00.457Z,104708.00
2019-02-23T07:01:35.504Z,104722.00
2019-02-23T07:03:10.611Z,104726.00
2019-02-23T07:04:46.595Z,104722.00
2019-02-23T07:06:21.699Z,104726.00
2019-02-23T07:07:56.789Z,104743.00
2019-02-23T07:09:32.260Z,104752.00
2019-02-23T07:11:07.544Z,104763.00
2019-02-23T07:12:42.633Z,104765.00
2019-02-23T07:14:17.729Z,104763.00
2019-02-23T07:15:52.836Z,104766.00
2019-02-23T07:17:27.932Z,104764.00
2019-02-23T07:19:03.033Z,104763.00
2019-02-23T07:20:44.146Z,104763.00
2019-02-23T07:22:15.994Z,104769.00
2019-02-23T07:23:51.194Z,104765.00
2019-02-23T07:25:26.572Z,104775.00
2019-02-23T07:27:01.672Z,104788.00
2019-02-23T07:28:36.764Z,104793.00
2019-02-23T07:30:14.968Z,104796.00
2019-02-23T07:31:50.061Z,104806.00
2019-02-23T07:33:32.923Z,104802.00
2019-02-23T07:35:02.035Z,104804.00
2019-02-23T07:36:37.139Z,104806.00
2019-02-23T07:38:12.237Z,104816.00
2019-02-23T07:39:47.340Z,104821.00
2019-02-23T07:41:22.442Z,104819.00
2019-02-23T07:42:57.591Z,104810.00
2019-02-23T07:44:32.639Z,104812.00
2019-02-23T07:46:07.755Z,104805.00
2019-02-23T07:47:42.846Z,104797.00
2019-02-23T07:49:17.944Z,104799.00
2019-02-23T07:50:53.055Z,104794.00
2019-02-23T07:52:29.136Z,104816.00
2019-02-23T07:54:04.241Z,104803.00
2019-02-23T07:55:39.346Z,104814.00
2019-02-23T07:57:14.441Z,104813.00
2019-02-23T07:58:49.535Z,104819.00
2019-02-23T08:00:24.643Z,104828.00
2019-02-23T08:01:59.733Z,104824.00
2019-02-23T08:03:35.795Z,104824.00
2019-02-23T08:05:11.072Z,104823.00
2019-02-23T08:06:46.500Z,104824.00
2019-02-23T08:08:21.595Z,104821.00
2019-02-23T08:09:56.716Z,104827.00
2019-02-23T08:11:31.822Z,104828.00
2019-02-23T08:13:06.914Z,104837.00
2019-02-23T08:14:42.021Z,104842.00
2019-02-23T08:16:17.992Z,104835.00
2019-02-23T08:17:53.087Z,104846.00
2019-02-23T08:19:28.195Z,104838.00
2019-02-23T08:21:03.303Z,104837.00
2019-02-23T08:22:38.404Z,104833.00
2019-02-23T08:24:13.505Z,104845.00
2019-02-23T08:25:48.613Z,104851.00
2019-02-23T08:27:23.711Z,104848.00
2019-02-23T08:28:58.806Z,104862.00
2019-02-23T08:30:33.910Z,104872.00
2019-02-23T08:32:09.008Z,104875.00
2019-02-23T08:33:44.107Z,104887.00
2019-02-23T08:35:19.205Z,104881.00
2019-02-23T08:36:54.310Z,104892.00
2019-02-23T08:38:29.409Z,104881.00
2019-02-23T08:40:11.040Z,104890.00
2019-02-23T08:41:46.292Z,104890.00
2019-02-23T08:43:21.385Z,104897.00
2019-02-23T08:44:56.732Z,104894.00
2019-02-23T08:46:32.099Z,104891.00
2019-02-23T08:48:07.197Z,104894.00
2019-02-23T08:49:42.579Z,104891.00
2019-02-23T08:51:18.489Z,104895.00
2019-02-23T08:52:53.862Z,104886.00
2019-02-23T08:54:28.972Z,104876.00
2019-02-23T08:56:04.087Z,104870.00
2019-02-23T08:57:39.185Z,104863.00
2019-02-23T08:59:14.276Z,104863.00
2019-02-23T09:00:49.399Z,104859.00
2019-02-23T09:02:24.492Z,104848.00
2019-02-23T09:03:59.591Z,104856.00
2019-02-23T09:05:34.694Z,104848.00
2019-02-23T09:07:09.797Z,104848.00
2019-02-23T09:08:44.889Z,104837.00
2019-02-23T09:10:19.990Z,104844.00
2019-02-23T09:11:55.096Z,104833.00
2019-02-23T09:13:30.186Z,104827.00
2019-02-23T09:15:07.200Z,104829.00
2019-02-23T09:16:42.308Z,104833.00
2019-02-23T09:18:17.407Z,104833.00
2019-02-23T09:19:52.810Z,104840.00
2019-02-23T09:21:27.927Z,104839.00
2019-02-23T09:23:03.029Z,104844.00
2019-02-23T09:24:38.149Z,104859.00
2019-02-23T09:26:13.246Z,104852.00
2019-02-23T09:27:49.171Z,104845.00
2019-02-23T09:29:24.275Z,104837.00
2019-02-23T09:30:59.457Z,104841.00
2019-02-23T09:32:34.587Z,104837.00
2019-02-23T09:34:09.688Z,104838.00
2019-02-23T09:35:45.136Z,104845.00
2019-02-23T09:37:20.254Z,104851.00
2019-02-23T09:38:55.360Z,104854.00
2019-02-23T09:40:30.464Z,104856.00
2019-02-23T09:42:07.693Z,104847.00
2019-02-23T09:43:42.662Z,104854.00
2019-02-23T09:45:17.781Z,104856.00
2019-02-23T09:46:52.896Z,104842.00
2019-02-23T09:48:28.012Z,104843.00
2019-02-23T09:50:03.121Z,104842.00
2019-02-23T09:51:38.243Z,104832.00
2019-02-23T09:53:13.350Z,104829.00
2019-02-23T09:54:49.594Z,104825.00
2019-02-23T09:56:25.683Z,104824.00
2019-02-23T09:58:00.797Z,104820.00
2019-02-23T09:59:35.901Z,104819.00
2019-02-23T10:01:11.065Z,104820.00
2019-02-23T10:02:46.170Z,104820.00
2019-02-23T10:04:21.294Z,104820.00
2019-02-23T10:05:57.377Z,104816.00
2019-02-23T10:07:32.499Z,104802.00
2019-02-23T10:09:07.599Z,104799.00
2019-02-23T10:10:42.982Z,104801.00
2019-02-23T10:12:18.452Z,104812.00
2019-02-23T10:13:53.558Z,104808.00
2019-02-23T10:15:28.683Z,104811.00
2019-02-23T10:17:03.797Z,104803.00
2019-02-23T10:18:38.908Z,104802.00
2019-02-23T10:20:15.218Z,104802.00
2019-02-23T10:21:50.359Z,104793.00
2019-02-23T10:23:25.466Z,104794.00
2019-02-23T10:25:00.585Z,104794.00
2019-02-23T10:26:35.690Z,104792.00
2019-02-23T10:28:10.798Z,104790.00
2019-02-23T10:29:45.910Z,104795.00
2019-02-23T10:31:21.021Z,104778.00
2019-02-23T10:32:56.144Z,104781.00
2019-02-23T10:34:31.250Z,104782.00
2019-02-23T10:36:06.352Z,104789.00
2019-02-23T10:37:41.457Z,104778.00
2019-02-23T10:39:16.883Z,104781.00
2019-02-23T10:40:51.996Z,104777.00
2019-02-23T10:42:27.112Z,104781.00
2019-02-23T10:44:02.212Z,104781.00
2019-02-23T10:45:37.325Z,104779.00
2019-02-23T10:47:12.498Z,104781.00
2019-02-23T10:48:47.604Z,104771.00
2019-02-23T10:50:23.685Z,104773.00
2019-02-23T10:51:58.798Z,104773.00
2019-02-23T10:53:33.899Z,104768.00
2019-02-23T10:55:12.029Z,104780.00
2019-02-23T10:56:47.129Z,104768.00
2019-02-23T10:58:22.236Z,104768.00
2019-02-23T10:59:57.659Z,104766.00
2019-02-23T11:01:32.766Z,104771.00
2019-02-23T11:03:07.883Z,104762.00
2019-02-23T11:04:42.981Z,104751.00
2019-02-23T11:06:18.091Z,104753.00
2019-02-23T11:07:53.193Z,104750.00
2019-02-23T11:09:29.931Z,104751.00
2019-02-23T11:11:05.106Z,104759.00
2019-02-23T11:12:40.220Z,104750.00
2019-02-23T11:14:15.677Z,104758.00
2019-02-23T11:15:51.624Z,104742.00
2019-02-23T11:17:26.742Z,104748.00
2019-02-23T11:19:01.849Z,104739.00
2019-02-23T11:20:37.328Z,104740.00
2019-02-23T11:22:12.519Z,104734.00
2019-02-23T11:23:47.619Z,104741.00
2019-02-23T11:25:23.761Z,104739.00
2019-02-23T11:26:59.169Z,104737.00
2019-02-23T11:28:34.275Z,104733.00
2019-02-23T11:30:14.403Z,104736.00
2019-02-23T11:31:49.543Z,104734.00
2019-02-23T11:33:24.659Z,104731.00
2019-02-23T11:34:59.766Z,104737.00
2019-02-23T11:36:35.174Z,104727.00
2019-02-23T11:38:10.608Z,104735.00
2019-02-23T11:39:45.728Z,104731.00
2019-02-23T11:41:21.820Z,104728.00
2019-02-23T11:42:56.939Z,104722.00
2019-02-23T11:44:32.039Z,104720.00
2019-02-23T11:46:07.145Z,104725.00
2019-02-23T11:47:42.256Z,104731.00
2019-02-23T11:49:17.363Z,104717.00
2019-02-23T11:50:52.770Z,104714.00
2019-02-23T11:52:27.888Z,104715.00
2019-02-23T11:54:02.988Z,104717.00
2019-02-23T11:55:38.087Z,104709.00
2019-02-23T11:57:13.202Z,104701.00
2019-02-23T11:58:48.625Z,104697.00
2019-02-23T12:00:23.724Z,104706.00
2019-02-23T12:01:58.827Z,104701.00
2019-02-23T12:03:33.939Z,104696.00
2019-02-23T12:05:10.447Z,104706.00
2019-02-23T12:06:45.815Z,104704.00
2019-02-23T12:08:22.058Z,104696.00
2019-02-23T12:09:57.507Z,104691.00
2019-02-23T12:11:32.611Z,104693.00
2019-02-23T12:13:08.070Z,104675.00
2019-02-23T12:14:43.172Z,104679.00
2019-02-23T12:16:18.654Z,104680.00
2019-02-23T12:17:53.750Z,104666.00
2019-02-23T12:19:28.865Z,104675.00
2019-02-23T12:21:03.970Z,104668.00
2019-02-23T12:22:39.080Z,104667.00
2019-02-23T12:24:14.185Z,104658.00
2019-02-23T12:25:49.286Z,104660.00
2019-02-23T12:27:24.409Z,104648.00
2019-02-23T12:28:59.511Z,104645.00
2019-02-23T12:30:34.909Z,104642.00
2019-02-23T12:32:10.042Z,104647.00
2019-02-23T12:33:45.164Z,104638.00
2019-02-23T12:35:20.616Z,104641.00
2019-02-23T12:36:57.514Z,104639.00
2019-02-23T12:38:32.534Z,104641.00
2019-02-23T12:40:09.644Z,104632.00
2019-02-23T12:41:44.742Z,104629.00
2019-02-23T12:43:20.842Z,104627.00
2019-02-23T12:44:55.927Z,104632.00
2019-02-23T12:46:31.052Z,104636.00
2019-02-23T12:48:06.147Z,104646.00
2019-02-23T12:49:41.251Z,104649.00
2019-02-23T12:51:17.429Z,104645.00
2019-02-23T12:52:52.546Z,104642.00
2019-02-23T12:54:30.507Z,104652.00
2019-02-23T12:56:04.463Z,104646.00
2019-02-23T12:57:39.569Z,104641.00
2019-02-23T12:59:15.048Z,104637.00
2019-02-23T13:00:50.146Z,104634.00
2019-02-23T13:02:25.261Z,104643.00
2019-02-23T13:04:00.385Z,104637.00
2019-02-23T13:05:35.491Z,104643.00
2019-02-23T13:07:10.629Z,104645.00
2019-02-23T13:09:14.762Z,104645.00
2019-02-23T13:10:52.389Z,104640.00
2019-02-23T13:12:43.907Z,104643.00
2019-02-23T13:14:47.245Z,104636.00
2019-02-23T13:16:27.381Z,104646.00
2019-02-23T13:18:12.964Z,104650.00
2019-02-23T13:20:16.672Z,104653.00
2019-02-23T13:22:14.542Z,104653.00
2019-02-23T13:24:05.759Z,104641.00
2019-02-23T13:25:54.727Z,104646.00
2019-02-23T13:27:37.436Z,104645.00
2019-02-23T13:29:39.923Z,104643.00
2019-02-23T13:31:31.875Z,104650.00
2019-02-23T13:33:32.904Z,104653.00
2019-02-23T13:35:27.740Z,104648.00
2019-02-23T13:37:28.384Z,104656.00
2019-02-23T13:39:14.199Z,104665.00
2019-02-23T13:41:28.871Z,104650.00
2019-02-23T13:43:29.801Z,104653.00
2019-02-23T13:45:24.957Z,104649.00
2019-02-23T13:47:31.510Z,104658.00
2019-02-23T13:49:33.524Z,104654.00
2019-02-23T13:51:48.536Z,104643.00
2019-02-23T13:53:48.214Z,104637.00
2019-02-23T13:55:52.193Z,104635.00
2019-02-23T13:57:49.549Z,104637.00
2019-02-23T13:59:35.937Z,104644.00
2019-02-23T14:01:18.747Z,104630.00
2019-02-23T14:03:24.450Z,104627.00
2019-02-23T14:05:19.657Z,104622.00
2019-02-23T14:07:06.277Z,104621.00
2019-02-23T14:08:46.261Z,104623.00
2019-02-23T14:10:57.278Z,104608.00
2019-02-23T14:12:58.156Z,104591.00
2019-02-23T14:15:05.107Z,104591.00
2019-02-23T14:17:07.669Z,104594.00
2019-02-23T14:18:59.069Z,104593.00
2019-02-23T14:21:09.626Z,104586.00
2019-02-23T14:23:11.563Z,104583.00
2019-02-23T14:25:08.240Z,104580.00
2019-02-23T14:27:04.576Z,104564.00
2019-02-23T14:29:19.724Z,104561.00
2019-02-23T14:31:09.115Z,104557.00
2019-02-23T14:33:09.315Z,104549.00
2019-02-23T14:34:58.173Z,104550.00
2019-02-23T14:37:03.917Z,104553.00
2019-02-23T14:39:06.446Z,104560.00
2019-02-23T14:40:55.137Z,104555.00
2019-02-23T14:42:56.104Z,104559.00
2019-02-23T14:45:00.188Z,104549.00
2019-02-23T14:46:54.346Z,104551.00
2019-02-23T14:48:46.045Z,104553.00
2019-02-23T14:50:54.366Z,104550.00
2019-02-23T14:52:36.743Z,104556.00
2019-02-23T14:54:31.347Z,104550.00
2019-02-23T14:56:20.009Z,104550.00
2019-02-23T14:58:32.101Z,104527.00
2019-02-23T15:00:34.765Z,104534.00
2019-02-23T15:02:23.410Z,104542.00
2019-02-23T15:04:29.955Z,104533.00
2019-02-23T15:06:36.843Z,104534.00
2019-02-23T15:08:37.213Z,104521.00
2019-02-23T15:10:28.992Z,104520.00
2019-02-23T15:12:21.009Z,104520.00
2019-02-23T15:14:13.012Z,104533.00
2019-02-23T15:16:18.949Z,104519.00
2019-02-23T15:18:30.477Z,104519.00
2019-02-23T15:20:31.424Z,104524.00
2019-02-23T15:22:31.815Z,104516.00
2019-02-23T15:24:33.280Z,104522.00
2019-02-23T15:26:51.036Z,104517.00
2019-02-23T15:28:37.670Z,104523.00
2019-02-23T15:30:51.087Z,104516.00
2019-02-23T15:33:11.424Z,104523.00
2019-02-23T15:35:09.826Z,104535.00
2019-02-23T15:37:04.180Z,104525.00
2019-02-23T15:39:12.759Z,104538.00
2019-02-23T15:41:02.616Z,104544.00
2019-02-23T15:43:15.798Z,104545.00
2019-02-23T15:44:55.902Z,104538.00
2019-02-23T15:46:44.228Z,104530.00
2019-02-23T15:48:52.706Z,104524.00
2019-02-23T15:50:27.831Z,104521.00
2019-02-23T15:52:03.988Z,104520.00
2019-02-23T15:53:39.104Z,104521.00
2019-02-23T15:55:25.357Z,104520.00
2019-02-23T15:56:51.050Z,104526.00
2019-02-23T15:58:27.247Z,104527.00
2019-02-23T16:00:02.347Z,104533.00
2019-02-23T16:01:37.809Z,104525.00
2019-02-23T16:03:12.898Z,104527.00
2019-02-23T16:04:47.992Z,104527.00
2019-02-23T16:06:23.115Z,104523.00
2019-02-23T16:07:58.174Z,104519.00
2019-02-23T16:09:33.419Z,104522.00
2019-02-23T16:11:08.436Z,104531.00
2019-02-23T16:12:43.532Z,104521.00
2019-02-23T16:14:18.632Z,104519.00
2019-02-23T16:15:53.989Z,104530.00
2019-02-23T16:17:29.076Z,104533.00
2019-02-23T16:19:04.226Z,104515.00
2019-02-23T16:20:39.270Z,104511.00
2019-02-23T16:22:14.486Z,104522.00
2019-02-23T16:23:49.866Z,104522.00
2019-02-23T16:25:24.952Z,104520.00
2019-02-23T16:27:00.046Z,104516.00
2019-02-23T16:28:35.148Z,104525.00
2019-02-23T16:30:11.314Z,104532.00
2019-02-23T16:31:46.418Z,104519.00
2019-02-23T16:33:21.786Z,104521.00
2019-02-23T16:34:57.961Z,104529.00
2019-02-23T16:36:33.047Z,104530.00
2019-02-23T16:38:08.143Z,104532.00
2019-02-23T16:39:43.224Z,104528.00
2019-02-23T16:41:18.321Z,104525.00
2019-02-23T16:42:53.405Z,104523.00
2019-02-23T16:44:31.516Z,104516.00
2019-02-23T16:46:05.304Z,104517.00
2019-02-23T16:47:40.390Z,104520.00
2019-02-23T16:49:15.512Z,104521.00
2019-02-23T16:50:50.609Z,104536.00
2019-02-23T16:52:25.699Z,104531.00
2019-02-23T16:54:00.824Z,104527.00
2019-02-23T16:55:35.904Z,104528.00
2019-02-23T16:57:10.998Z,104532.00
2019-02-23T16:58:46.094Z,104534.00
2019-02-23T17:00:21.192Z,104519.00
2019-02-23T17:01:56.287Z,104523.00
2019-02-23T17:03:31.392Z,104529.00
2019-02-23T17:05:07.997Z,104531.00
2019-02-23T17:06:43.094Z,104531.00
2019-02-23T17:08:18.199Z,104526.00
2019-02-23T17:09:53.293Z,104529.00
2019-02-23T17:11:29.470Z,104527.00
2019-02-23T17:13:04.530Z,104532.00
2019-02-23T17:14:39.625Z,104527.00
2019-02-23T17:16:14.732Z,104530.00
2019-02-23T17:17:51.152Z,104530.00
2019-02-23T17:19:26.242Z,104532.00
2019-02-23T17:21:01.611Z,104537.00
2019-02-23T17:22:37.682Z,104533.00
2019-02-23T17:24:12.781Z,104524.00
2019-02-23T17:25:47.885Z,104518.00
2019-02-23T17:27:35.548Z,104525.00
2019-02-23T17:29:00.106Z,104534.00
2019-02-23T17:30:35.216Z,104527.00
2019-02-23T17:32:10.433Z,104530.00
2019-02-23T17:33:45.528Z,104533.00
2019-02-23T17:35:20.943Z,104524.00
2019-02-23T17:36:56.072Z,104520.00
2019-02-23T17:38:31.140Z,104515.00
2019-02-23T17:40:07.755Z,104512.00
2019-02-23T17:41:42.855Z,104512.00
2019-02-23T17:43:18.243Z,104494.00
2019-02-23T17:44:53.597Z,104498.00
2019-02-23T17:46:29.942Z,104501.00
2019-02-23T17:48:05.035Z,104503.00
2019-02-23T17:49:40.382Z,104507.00
2019-02-23T17:51:15.734Z,104497.00
2019-02-23T17:52:51.079Z,104495.00
2019-02-23T17:54:27.135Z,104492.00
2019-02-23T17:56:02.239Z,104487.00
2019-02-23T17:57:37.328Z,104482.00
2019-02-23T17:59:12.424Z,104485.00
2019-02-23T18:00:47.519Z,104501.00
2019-02-23T18:02:22.697Z,104489.00
2019-02-23T18:03:57.785Z,104489.00
2019-02-23T18:05:32.876Z,104471.00
2019-02-23T18:07:07.975Z,104487.00
2019-02-23T18:08:43.068Z,104490.00
2019-02-23T18:10:18.161Z,104497.00
2019-02-23T18:11:53.260Z,104490.00
2019-02-23T18:13:28.346Z,104495.00
2019-02-23T18:15:04.630Z,104512.00
2019-02-23T18:16:39.736Z,104508.00
2019-02-23T18:18:15.078Z,104496.00
2019-02-23T18:19:51.141Z,104497.00
2019-02-23T18:21:26.501Z,104497.00
2019-02-23T18:23:01.851Z,104507.00
2019-02-23T18:24:36.952Z,104494.00
2019-02-23T18:26:12.064Z,104493.00
2019-02-23T18:27:47.160Z,104505.00
2019-02-23T18:29:22.263Z,104506.00
2019-02-23T18:30:57.359Z,104502.00
2019-02-23T18:32:32.457Z,104510.00
2019-02-23T18:34:07.544Z,104501.00
2019-02-23T18:35:42.638Z,104505.00
2019-02-23T18:37:17.742Z,104487.00
2019-02-23T18:38:52.840Z,104512.00
2019-02-23T18:40:27.932Z,104516.00
2019-02-23T18:42:03.049Z,104509.00
2019-02-23T18:43:38.141Z,104500.00